createdAt,value
2019-06-27T00:06:07.855Z,51.70
2019-06-27T00:09:53.095Z,51.90
2019-06-27T00:13:15.312Z,51.80
2019-06-27T00:20:03.551Z,51.20
2019-06-27T00:23:01.956Z,51.10
2019-06-27T00:26:15.102Z,51.10
2019-06-27T00:33:40.602Z,51.30
2019-06-27T00:36:39.966Z,51.50
2019-06-27T00:40:08.788Z,51.50
2019-06-27T00:54:08.637Z,51.80
2019-06-27T00:56:39.390Z,51.80
2019-06-27T01:00:10.088Z,51.70
2019-06-27T01:07:17.290Z,51.50
2019-06-27T01:13:45.404Z,51.50
2019-06-27T01:17:01.742Z,51.70
2019-06-27T01:20:34.269Z,51.90
2019-06-27T01:34:41.420Z,51.80
2019-06-27T01:38:46.852Z,51.90
2019-06-27T01:41:44.223Z,52.00
2019-06-27T01:46:04.575Z,52.30
2019-06-27T01:49:22.650Z,52.70
2019-06-27T01:52:53.752Z,52.90
2019-06-27T01:56:55.873Z,53.30
2019-06-27T02:04:28.509Z,53.80
2019-06-27T02:08:19.137Z,54.10
2019-06-27T02:10:18.920Z,54.20
2019-06-27T02:13:20.330Z,54.40
2019-06-27T02:20:18.441Z,54.80
2019-06-27T02:30:56.941Z,55.40
2019-06-27T02:34:14.210Z,55.40
2019-06-27T02:37:18.977Z,55.40
2019-06-27T02:40:49.483Z,55.50
2019-06-27T02:51:50.942Z,56.30
2019-06-27T02:54:12.892Z,56.60
2019-06-27T02:57:40.553Z,56.60
2019-06-27T03:04:32.876Z,57.10
2019-06-27T03:11:46.249Z,57.60
2019-06-27T03:16:23.982Z,57.70
2019-06-27T03:18:08.609Z,57.90
2019-06-27T03:21:44.303Z,58.10
2019-06-27T03:29:29.346Z,58.70
2019-06-27T03:36:16.070Z,58.80
2019-06-27T03:39:35.512Z,58.90
2019-06-27T03:41:08.780Z,58.50
2019-06-27T03:43:06.425Z,58.80
2019-06-27T03:56:42.812Z,58.40
2019-06-27T04:03:21.055Z,58.80
2019-06-27T04:06:09.820Z,57.60
2019-06-27T04:15:52.728Z,55.10
2019-06-27T04:19:13.501Z,55.40
2019-06-27T04:23:13.041Z,55.70
2019-06-27T04:34:18.181Z,56.60
2019-06-27T04:40:54.764Z,56.50
2019-06-27T04:47:29.396Z,56.00
2019-06-27T04:54:15.149Z,56.00
2019-06-27T04:57:35.633Z,55.40
2019-06-27T05:00:52.622Z,55.00
2019-06-27T05:07:41.179Z,49.70
2019-06-27T05:15:00.196Z,44.90
2019-06-27T05:19:01.045Z,43.00
2019-06-27T05:23:15.208Z,47.00
2019-06-27T05:25:15.143Z,42.40
2019-06-27T05:28:37.481Z,41.40
2019-06-27T05:32:11.708Z,40.10
2019-06-27T05:39:53.993Z,40.00
2019-06-27T05:43:15.158Z,39.90
2019-06-27T06:01:25.306Z,39.40
2019-06-27T06:11:10.271Z,38.30
2019-06-27T06:14:02.096Z,38.20
2019-06-27T06:17:42.626Z,37.90
2019-06-27T06:21:02.764Z,37.70
2019-06-27T06:23:46.502Z,37.50
2019-06-27T06:27:02.149Z,37.00
2019-06-27T06:31:08.439Z,36.80
2019-06-27T06:36:55.339Z,38.00
2019-06-27T06:43:32.581Z,38.60
2019-06-27T06:46:49.774Z,39.50
2019-06-27T06:52:08.726Z,40.40
2019-06-27T06:52:56.088Z,40.80
2019-06-27T07:01:08.093Z,42.00
2019-06-27T07:04:10.272Z,42.30
2019-06-27T07:29:11.177Z,44.20
2019-06-27T07:39:04.908Z,44.30
2019-06-27T07:45:28.686Z,44.30
2019-06-27T07:48:51.450Z,44.50
2019-06-27T07:52:26.473Z,44.00
2019-06-27T08:10:25.671Z,44.00
2019-06-27T08:12:57.763Z,43.70
2019-06-27T08:15:43.924Z,43.90
2019-06-27T08:21:44.750Z,44.40
2019-06-27T08:24:44.068Z,44.50
2019-06-27T08:27:20.466Z,44.60
2019-06-27T08:29:55.059Z,44.70
2019-06-27T08:33:49.907Z,44.60
2019-06-27T08:36:32.748Z,44.70
2019-06-27T08:39:15.284Z,44.70
2019-06-27T08:41:47.212Z,44.50
2019-06-27T08:44:31.781Z,44.00
2019-06-27T08:47:19.511Z,43.60
2019-06-27T08:49:52.582Z,43.40
2019-06-27T08:52:27.054Z,42.80
2019-06-27T08:55:05.177Z,41.50
2019-06-27T08:57:45.913Z,41.30
2019-06-27T09:00:50.349Z,40.80
2019-06-27T09:03:25.689Z,40.50
2019-06-27T09:06:33.311Z,40.10
2019-06-27T09:09:30.876Z,39.90
2019-06-27T09:12:21.358Z,39.80
2019-06-27T09:14:56.203Z,39.80
2019-06-27T09:17:45.255Z,40.00
2019-06-27T09:20:40.390Z,40.40
2019-06-27T09:23:17.187Z,40.50
2019-06-27T09:26:01.057Z,40.40
2019-06-27T09:28:51.130Z,39.70
2019-06-27T09:31:55.312Z,39.80
2019-06-27T09:34:50.295Z,39.20
2019-06-27T09:37:43.520Z,39.10
2019-06-27T09:40:44.601Z,39.40
2019-06-27T09:43:31.478Z,39.70
2019-06-27T09:46:36.868Z,39.10
2019-06-27T09:49:43.838Z,38.80
2019-06-27T09:52:35.885Z,38.50
2019-06-27T09:56:02.484Z,38.20
2019-06-27T10:11:53.388Z,37.60
2019-06-27T10:14:40.210Z,37.00
2019-06-27T10:17:29.499Z,36.70
2019-06-27T10:20:13.150Z,36.30
2019-06-27T10:23:03.321Z,35.80
2019-06-27T10:25:51.323Z,35.10
2019-06-27T10:28:25.974Z,35.10
2019-06-27T10:31:01.841Z,35.00
2019-06-27T10:33:32.390Z,34.70
2019-06-27T10:36:24.830Z,34.80
2019-06-27T10:39:02.323Z,34.80
2019-06-27T10:41:32.819Z,34.80
2019-06-27T10:44:04.215Z,35.00
2019-06-27T10:46:40.373Z,35.00
2019-06-27T10:49:34.112Z,34.90
2019-06-27T10:52:17.124Z,34.90
2019-06-27T10:55:26.807Z,35.30
2019-06-27T11:01:39.446Z,34.60
2019-06-27T11:04:16.348Z,34.20
2019-06-27T11:06:47.027Z,33.60
2019-06-27T11:09:25.836Z,33.50
2019-06-27T11:12:00.661Z,33.40
2019-06-27T11:14:39.870Z,33.60
2019-06-27T11:17:12.886Z,33.80
2019-06-27T11:20:08.457Z,33.60
2019-06-27T11:22:50.464Z,33.80
2019-06-27T11:25:29.369Z,33.90
2019-06-27T11:28:17.828Z,33.90
2019-06-27T11:31:13.922Z,34.20
2019-06-27T11:34:36.064Z,33.90
2019-06-27T11:41:05.959Z,32.10
2019-06-27T11:43:52.422Z,31.10
2019-06-27T11:50:24.208Z,30.60
2019-06-27T11:54:38.864Z,31.10
2019-06-27T12:01:03.824Z,30.20
2019-06-27T12:07:00.933Z,29.90
2019-06-27T12:10:00.056Z,29.30
2019-06-27T12:12:35.084Z,29.00
2019-06-27T12:15:15.666Z,29.00
2019-06-27T12:17:59.653Z,29.10
2019-06-27T12:23:54.602Z,29.50
2019-06-27T12:27:08.401Z,29.00
2019-06-27T12:30:08.396Z,28.90
2019-06-27T12:32:51.933Z,29.20
2019-06-27T12:35:27.767Z,28.80
2019-06-27T12:38:07.959Z,28.10
2019-06-27T12:40:36.168Z,27.70
2019-06-27T12:43:09.363Z,28.10
2019-06-27T12:45:44.193Z,28.10
2019-06-27T12:48:30.003Z,27.80
2019-06-27T12:51:11.332Z,27.70
2019-06-27T12:53:46.697Z,27.70
2019-06-27T12:56:45.515Z,27.80
2019-06-27T12:59:22.313Z,27.60
2019-06-27T13:02:12.901Z,27.50
2019-06-27T13:04:47.288Z,27.70
2019-06-27T13:08:05.509Z,27.80
2019-06-27T13:10:30.505Z,27.70
2019-06-27T13:13:06.133Z,27.80
2019-06-27T13:15:41.095Z,27.80
2019-06-27T13:18:26.783Z,27.80
2019-06-27T13:20:58.824Z,28.10
2019-06-27T13:23:37.840Z,28.20
2019-06-27T13:26:21.388Z,28.40
2019-06-27T13:28:54.264Z,29.20
2019-06-27T13:31:48.584Z,28.90
2019-06-27T13:34:40.043Z,29.10
2019-06-27T13:37:03.374Z,29.10
2019-06-27T13:39:34.426Z,29.50
2019-06-27T13:42:05.277Z,29.90
2019-06-27T13:44:50.699Z,29.60
2019-06-27T13:47:38.074Z,29.20
2019-06-27T13:50:15.247Z,29.40
2019-06-27T13:52:54.471Z,29.60
2019-06-27T13:55:38.464Z,29.20
2019-06-27T13:58:30.051Z,29.40
2019-06-27T14:01:15.109Z,29.90
2019-06-27T14:03:50.119Z,30.50
2019-06-27T14:06:28.996Z,31.10
2019-06-27T14:09:03.320Z,31.20
2019-06-27T14:11:48.697Z,30.90
2019-06-27T14:14:26.859Z,30.90
2019-06-27T14:17:04.068Z,31.10
2019-06-27T14:19:44.905Z,30.70
2019-06-27T14:22:29.209Z,30.70
2019-06-27T14:25:12.801Z,30.90
2019-06-27T14:28:10.559Z,31.30
2019-06-27T14:30:58.452Z,30.30
2019-06-27T14:33:31.538Z,30.20
2019-06-27T14:36:02.112Z,30.60
2019-06-27T14:38:55.779Z,30.80
2019-06-27T14:41:26.254Z,31.00
2019-06-27T14:44:08.811Z,31.10
2019-06-27T14:46:39.413Z,30.80
2019-06-27T14:49:16.048Z,30.80
2019-06-27T14:51:53.825Z,30.90
2019-06-27T14:54:26.522Z,30.80
2019-06-27T14:57:01.199Z,30.80
2019-06-27T14:59:49.695Z,30.80
2019-06-27T15:02:51.904Z,31.00
2019-06-27T15:05:32.937Z,30.90
2019-06-27T15:08:19.378Z,31.10
2019-06-27T15:12:13.785Z,31.20
2019-06-27T15:14:45.349Z,31.40
2019-06-27T15:17:49.577Z,31.50
2019-06-27T15:20:46.338Z,31.60
2019-06-27T15:23:31.343Z,31.70
2019-06-27T15:26:04.869Z,31.60
2019-06-27T15:29:20.289Z,31.50
2019-06-27T15:36:21.189Z,31.60
2019-06-27T15:39:58.281Z,31.60
2019-06-27T15:50:49.475Z,31.80
2019-06-27T15:58:04.302Z,32.20
2019-06-27T16:09:56.309Z,32.00
2019-06-27T16:13:24.897Z,32.00
2019-06-27T16:27:41.123Z,33.10
2019-06-27T16:29:21.573Z,32.10
2019-06-27T16:31:28.648Z,33.20
2019-06-27T16:35:07.873Z,33.00
2019-06-27T16:38:25.007Z,33.40
2019-06-27T16:42:14.567Z,33.90
2019-06-27T16:53:39.554Z,34.90
2019-06-27T16:56:39.629Z,34.80
2019-06-27T17:03:08.781Z,35.30
2019-06-27T17:06:41.627Z,35.50
2019-06-27T17:10:14.439Z,35.70
2019-06-27T17:13:18.152Z,35.70
2019-06-27T17:23:05.503Z,36.30
2019-06-27T17:26:11.483Z,36.60
2019-06-27T17:30:52.815Z,36.80
2019-06-27T17:31:56.875Z,37.00
2019-06-27T17:39:44.577Z,37.40
2019-06-27T17:43:18.543Z,37.60
2019-06-27T17:47:07.715Z,38.00
2019-06-27T17:53:24.047Z,38.30
2019-06-27T17:56:57.068Z,38.60
2019-06-27T18:04:15.735Z,39.10
2019-06-27T18:07:49.152Z,39.30
2019-06-27T18:11:01.761Z,39.40
2019-06-27T18:14:16.945Z,39.70
2019-06-27T18:18:52.657Z,40.00
2019-06-27T18:20:34.823Z,40.10
2019-06-27T18:23:27.233Z,40.40
2019-06-27T18:29:54.433Z,40.80
2019-06-27T18:34:15.103Z,40.90
2019-06-27T18:36:48.761Z,40.90
2019-06-27T18:40:49.811Z,41.10
2019-06-27T18:44:25.035Z,41.20
2019-06-27T18:54:11.139Z,41.60
2019-06-27T18:57:16.126Z,41.70
2019-06-27T19:00:28.119Z,41.70
2019-06-27T19:04:20.841Z,41.70
2019-06-27T19:07:20.068Z,41.80
2019-06-27T19:10:51.606Z,41.90
2019-06-27T19:14:24.298Z,42.00
2019-06-27T19:24:28.892Z,42.30
2019-06-27T19:28:01.061Z,42.60
2019-06-27T19:31:31.205Z,42.80
2019-06-27T19:42:21.073Z,43.60
2019-06-27T19:45:25.377Z,43.70
2019-06-27T19:51:59.829Z,44.00
2019-06-27T19:55:14.206Z,44.10
2019-06-27T19:58:50.407Z,44.20
2019-06-27T20:05:48.934Z,44.40
2019-06-27T20:19:43.905Z,45.20
2019-06-27T20:41:57.442Z,46.30
2019-06-27T20:49:30.025Z,47.00
2019-06-27T21:13:09.702Z,47.80
2019-06-27T21:16:00.415Z,48.00
2019-06-27T21:19:13.668Z,48.00
2019-06-27T21:25:53.223Z,48.40
2019-06-27T21:39:06.634Z,48.80
2019-06-27T21:42:16.241Z,48.90
2019-06-27T21:51:50.474Z,49.20
2019-06-27T21:53:04.127Z,49.20
2019-06-27T21:58:39.856Z,49.60
2019-06-27T22:02:20.418Z,49.60
2019-06-27T22:05:54.555Z,49.70
2019-06-27T22:08:59.799Z,50.00
2019-06-27T22:15:29.784Z,50.20
2019-06-27T22:24:34.823Z,50.40
2019-06-27T22:24:40.190Z,50.60
2019-06-27T22:30:41.987Z,50.80
2019-06-27T22:34:45.712Z,50.90
2019-06-27T22:41:47.831Z,51.00
2019-06-27T22:44:49.063Z,51.20
2019-06-27T22:48:04.649Z,51.30
2019-06-27T22:57:50.898Z,51.80
2019-06-27T23:04:43.328Z,52.10
2019-06-27T23:07:48.039Z,52.30
2019-06-27T23:11:03.397Z,52.50
2019-06-27T23:13:50.343Z,52.70
2019-06-27T23:19:55.125Z,52.90
2019-06-27T23:23:07.036Z,53.00
2019-06-27T23:37:13.602Z,53.60
2019-06-27T23:44:51.069Z,53.90
2019-06-27T23:48:07.313Z,53.90
2019-06-27T23:51:38.875Z,54.20
2019-06-27T23:54:54.773Z,54.20
2019-06-27T23:58:01.756Z,55.00
